Prosperity — WDB9911 — position and weather

sailwx.info

Track history (hours):
 
Tides and Currents Weather Stations Pressure Air Temp Water Temp Dewpoint Dewpoint Depression Visibility Wind Speed Wind Dir Waves Ship Positions

Prosperity

Owner: American River Transportation Company, St Louis, MO. More information available from US FCC via Universal Licensing System and Coast Guard Vessel Documentation Center.

Last reported at 2017-Jan-25 05:06 UTC. Time now 2017-Apr-29 13:46 UTC.
Position N 31°51' W 091°17'.
Warning: this ship's position is months out of date.

MMSI: 366984960.

Date/timePositionNaut miles runAvg speedWind from/ knotsBaromVisibWave heightAir tempDewpointWater temp
2017-Jan-25 05:06N 31°51' W 091°17'5 7.6
2017-Jan-25 04:29N 31°54' W 091°12'9 6.5
2017-Jan-25 03:07N 31°60' W 091°05'5 7.1
2017-Jan-25 02:27N 32°05' W 091°04'4 3.9
2017-Jan-25 01:33N 32°08' W 091°05'6 5.9
2017-Jan-25 00:33N 32°12' W 090°60'7 7.4
2017-Jan-24 23:33N 32°18' W 090°55'5 5.1
2017-Jan-24 22:33N 32°21' W 090°60'8 7.8
2017-Jan-24 21:33N 32°27' W 091°06'9 8.6
2017-Jan-24 20:33N 32°36' W 091°08'  
Track history (hours):
 
Tides and Currents Weather Stations Pressure Air Temp Water Temp Dewpoint Dewpoint Depression Visibility Wind Speed Wind Dir Waves Ship Positions

Prosperity

Owner: American River Transportation Company, St Louis, MO. More information available from US FCC via Universal Licensing System and Coast Guard Vessel Documentation Center.

Last reported at 2017-Jan-25 05:06 UTC. Time now 2017-Apr-29 13:46 UTC.
Position N 31°51' W 091°17'.
Warning: this ship's position is months out of date.

MMSI: 366984960.

Date/timePositionNaut miles runAvg speedWind from/ knotsBaromVisibWave heightAir tempDewpointWater temp
2017-Jan-25 05:06N 31°51' W 091°17'5 7.6
2017-Jan-25 04:29N 31°54' W 091°12'9 6.5
2017-Jan-25 03:07N 31°60' W 091°05'5 7.1
2017-Jan-25 02:27N 32°05' W 091°04'4 3.9
2017-Jan-25 01:33N 32°08' W 091°05'6 5.9
2017-Jan-25 00:33N 32°12' W 090°60'7 7.4
2017-Jan-24 23:33N 32°18' W 090°55'5 5.1
2017-Jan-24 22:33N 32°21' W 090°60'8 7.8
2017-Jan-24 21:33N 32°27' W 091°06'9 8.6
2017-Jan-24 20:33N 32°36' W 091°08'  

Dump ship's entire track history